Time;durP1;ratioP1;P1;durP2;ratioP2;P2;SDS_P1;SDS_P2;PMS_P1;PMS_P2;Temp;Humidity;BMP_temperature;BMP_pressure;BME280_temperature;BME280_humidity;BME280_pressure;Samples;Min_cycle;Max_cycle;Signal;HPM_P1;HPM_P2
2022/09/14 11:23:17;;;;;;;5.03;3.37;;;28.50;93.20;;;;;;5043795;23;21091;31
2022/09/14 11:25:51;;;;;;;3.20;3.00;;;28.70;93.10;;;;;;4987140;28;21047;-82
2022/09/14 11:28:45;;;;;;;5.57;3.20;;;28.80;92.80;;;;;;4990785;28;20452;-82
2022/09/14 11:31:20;;;;;;;3.60;2.80;;;28.90;92.40;;;;;;4988480;28;20960;-82
2022/09/14 11:34:06;;;;;;;3.77;2.70;;;29.20;92.20;;;;;;5011602;28;20440;-82
2022/09/14 11:36:46;;;;;;;4.43;2.60;;;28.80;90.80;;;;;;5013196;28;20453;-82
2022/09/14 11:39:23;;;;;;;5.20;2.87;;;28.80;91.20;;;;;;5007522;28;20428;-81
2022/09/14 11:41:58;;;;;;;5.03;3.00;;;29.60;91.70;;;;;;5016489;28;20439;-82
2022/09/14 11:44:34;;;;;;;5.70;2.80;;;29.10;91.30;;;;;;5006153;28;20464;-81
2022/09/14 11:47:08;;;;;;;5.50;3.43;;;29.10;91.40;;;;;;5008015;28;20831;-82
2022/09/14 11:49:59;;;;;;;3.53;3.17;;;29.10;90.60;;;;;;5011378;28;20437;-83
2022/09/14 11:52:28;;;;;;;4.00;3.07;;;29.00;90.10;;;;;;5006987;28;20433;-83
2022/09/14 11:54:55;;;;;;;4.60;3.17;;;29.40;90.10;;;;;;5019561;28;20471;-82
2022/09/14 11:57:39;;;;;;;3.10;2.63;;;29.30;89.80;;;;;;5007738;28;20457;-82
2022/09/14 12:00:29;;;;;;;3.67;2.20;;;29.30;87.30;;;;;;5008847;28;20515;-82
2022/09/14 12:03:04;;;;;;;2.63;2.30;;;29.10;87.00;;;;;;5005531;28;21052;-82
2022/09/14 12:05:31;;;;;;;2.67;2.47;;;28.90;87.50;;;;;;5011189;28;20594;-82
2022/09/14 12:08:04;;;;;;;2.67;2.47;;;28.70;87.80;;;;;;5012794;28;20873;-83
2022/09/14 12:10:30;;;;;;;2.63;2.37;;;29.10;89.30;;;;;;4989811;28;20956;-82
2022/09/14 12:13:17;;;;;;;3.50;3.20;;;29.10;89.50;;;;;;5002775;28;20441;-82
2022/09/14 12:15:44;;;;;;;5.97;3.17;;;28.50;89.70;;;;;;5010746;28;20191;-83
2022/09/14 12:18:09;;;;;;;3.20;2.83;;;28.30;90.10;;;;;;5008613;28;21081;-83
2022/09/14 12:20:42;;;;;;;3.37;3.10;;;28.50;90.30;;;;;;5014987;28;20457;-82
2022/09/14 12:23:19;;;;;;;3.40;2.70;;;28.30;90.60;;;;;;5007037;28;20263;-83
2022/09/14 12:26:10;;;;;;;3.20;2.90;;;28.30;90.70;;;;;;5010287;28;20831;-83
2022/09/14 12:28:38;;;;;;;2.87;2.60;;;28.20;91.00;;;;;;5009549;28;20466;-82
2022/09/14 12:31:04;;;;;;;3.70;2.80;;;27.60;90.90;;;;;;5010392;28;20421;-82
2022/09/14 12:33:32;;;;;;;3.10;2.80;;;27.90;91.40;;;;;;4992481;28;21058;-83
2022/09/14 12:36:04;;;;;;;4.47;3.60;;;27.70;92.10;;;;;;5006608;28;20192;-83
2022/09/14 12:38:30;;;;;;;8.17;3.67;;;27.60;92.50;;;;;;5010760;28;20455;-82
2022/09/14 12:40:57;;;;;;;4.03;3.37;;;27.50;93.10;;;;;;5009913;28;20509;-84
2022/09/14 12:43:32;;;;;;;3.10;2.80;;;28.40;94.10;;;;;;5011699;28;20182;-82
2022/09/14 12:46:09;;;;;;;6.67;3.37;;;27.60;93.60;;;;;;5009897;28;20494;-83
2022/09/14 12:48:47;;;;;;;3.27;3.03;;;26.80;94.90;;;;;;5010103;28;20480;-82
2022/09/14 12:51:19;;;;;;;4.30;3.30;;;26.50;95.90;;;;;;5003688;28;20528;-83
2022/09/14 12:53:47;;;;;;;3.83;2.73;;;26.10;97.60;;;;;;5013286;28;20422;-82
2022/09/14 12:56:25;;;;;;;4.37;2.40;;;25.60;98.10;;;;;;5009540;28;20491;-83
2022/09/14 12:59:11;;;;;;;5.20;2.83;;;25.90;99.40;;;;;;5010228;28;20999;-82
2022/09/14 13:01:58;;;;;;;3.40;3.10;;;24.70;99.90;;;;;;5003827;28;20468;-82
2022/09/14 13:04:30;;;;;;;3.90;2.63;;;24.50;99.90;;;;;;5009170;28;20541;-82
2022/09/14 13:06:58;;;;;;;3.57;3.00;;;24.40;99.90;;;;;;5002369;28;20516;-82
2022/09/14 13:09:26;;;;;;;4.00;2.60;;;24.30;99.90;;;;;;5008402;28;20461;-82
2022/09/14 13:12:04;;;;;;;5.93;4.17;;;24.90;99.90;;;;;;5010246;28;20422;-82
2022/09/14 13:14:47;;;;;;;7.53;3.90;;;23.70;99.90;;;;;;5009917;28;20440;-80
2022/09/14 13:17:14;;;;;;;4.43;3.50;;;23.70;99.90;;;;;;5002976;28;20492;-81
2022/09/14 13:19:40;;;;;;;4.27;3.30;;;23.60;99.90;;;;;;5009081;28;20429;-82
2022/09/14 13:22:21;;;;;;;6.63;4.40;;;22.20;99.90;;;;;;5010145;28;20773;-82
2022/09/14 13:24:48;;;;;;;5.77;3.77;;;23.20;99.90;;;;;;5007525;28;20237;-82
2022/09/14 13:27:25;;;;;;;5.10;3.80;;;23.00;99.90;;;;;;5002850;28;20460;-84
2022/09/14 13:30:18;;;;;;;5.57;2.90;;;22.90;99.90;;;;;;5002415;28;20437;-81
2022/09/14 13:32:46;;;;;;;4.20;2.83;;;23.00;99.90;;;;;;5005482;28;20615;-81
2022/09/14 13:35:26;;;;;;;6.17;3.20;;;23.00;99.90;;;;;;4999500;28;20446;-88
2022/09/14 13:37:52;;;;;;;5.53;3.87;;;23.10;99.90;;;;;;4995252;28;21127;-83
2022/09/14 13:40:23;;;;;;;3.90;3.60;;;23.60;99.90;;;;;;5018565;28;20466;-82
2022/09/14 13:42:49;;;;;;;3.53;3.20;;;23.00;99.90;;;;;;5008797;28;20191;-82
2022/09/14 13:45:15;;;;;;;3.47;3.23;;;23.70;99.90;;;;;;5012246;28;20473;-82
2022/09/14 13:47:41;;;;;;;3.50;2.83;;;23.00;99.90;;;;;;4997521;28;20501;-82
2022/09/14 13:50:07;;;;;;;2.87;2.43;;;22.80;99.90;;;;;;5001582;28;20535;-89
2022/09/14 13:52:35;;;;;;;6.93;2.40;;;22.70;99.90;;;;;;5010833;28;20447;-87
2022/09/14 13:55:20;;;;;;;2.73;2.50;;;22.90;99.90;;;;;;4992520;28;20445;-84
2022/09/14 13:58:05;;;;;;;3.50;2.20;;;22.80;99.90;;;;;;4986605;28;20536;-85
2022/09/14 14:00:32;;;;;;;2.00;1.80;;;22.60;99.90;;;;;;5002539;28;20439;-84
2022/09/14 14:03:00;;;;;;;3.00;2.00;;;22.80;99.90;;;;;;5001963;28;20446;-85
2022/09/14 14:05:31;;;;;;;2.07;1.60;;;22.70;99.90;;;;;;4990215;28;20477;-84
2022/09/14 14:08:00;;;;;;;2.30;1.60;;;22.50;99.90;;;;;;5000336;28;20461;-83
2022/09/14 14:10:39;;;;;;;3.50;3.20;;;22.80;99.90;;;;;;5003919;28;21044;-84
2022/09/14 14:13:04;;;;;;;3.33;3.00;;;22.40;99.90;;;;;;5008107;28;20620;-83
2022/09/14 14:15:37;;;;;;;2.70;2.10;;;22.80;99.90;;;;;;4982552;28;21053;-82
2022/09/14 14:18:43;;;;;;;4.33;2.83;;;22.40;99.90;;;;;;4989451;28;20267;-82
2022/09/14 14:21:21;;;;;;;1.80;1.70;;;22.70;99.90;;;;;;4987636;28;20476;-83
2022/09/14 14:23:48;;;;;;;1.50;1.40;;;22.90;99.90;;;;;;5007085;28;20465;-83
2022/09/14 14:26:17;;;;;;;1.70;1.60;;;22.40;99.90;;;;;;5005418;28;21045;-84
2022/09/14 14:28:43;;;;;;;1.90;1.80;;;22.60;99.90;;;;;;4989697;28;20466;-86
2022/09/14 14:31:14;;;;;;;1.50;1.40;;;22.60;99.90;;;;;;5003168;28;20453;-90
2022/09/14 14:33:45;;;;;;;3.43;2.10;;;23.70;99.90;;;;;;4988605;28;20187;-86
2022/09/14 14:36:12;;;;;;;2.10;1.90;;;22.30;99.90;;;;;;5002737;28;20445;-84
2022/09/14 14:38:39;;;;;;;1.90;1.80;;;22.50;99.90;;;;;;5004312;28;20473;-86
2022/09/14 14:41:05;;;;;;;3.07;2.30;;;22.50;99.90;;;;;;4987520;28;20489;-84
2022/09/14 14:43:31;;;;;;;2.13;1.80;;;22.80;99.90;;;;;;4999615;28;20478;-87
2022/09/14 14:45:59;;;;;;;2.60;2.13;;;22.60;99.90;;;;;;5001344;28;20519;-84
2022/09/14 14:48:26;;;;;;;2.77;2.00;;;22.30;99.90;;;;;;4997394;28;20234;-85
2022/09/14 14:50:54;;;;;;;2.70;2.10;;;22.30;99.90;;;;;;5003512;28;20441;-83
2022/09/14 14:53:23;;;;;;;1.87;1.67;;;21.80;99.90;;;;;;5004650;28;20482;-84
2022/09/14 14:55:49;;;;;;;2.40;2.20;;;22.20;99.90;;;;;;4987421;28;20531;-84
2022/09/14 14:58:17;;;;;;;2.33;1.87;;;23.90;99.90;;;;;;5001516;28;21005;-84
2022/09/14 15:00:43;;;;;;;2.57;2.37;;;22.50;99.90;;;;;;4987374;28;20274;-86
2022/09/14 15:03:09;;;;;;;2.20;1.77;;;22.50;99.90;;;;;;4990870;28;20452;-84
2022/09/14 15:05:39;;;;;;;2.33;1.67;;;22.40;99.90;;;;;;5005425;28;20480;-81
2022/09/14 15:08:04;;;;;;;4.03;1.40;;;22.50;99.90;;;;;;5002151;28;20344;-81
2022/09/14 15:10:30;;;;;;;4.40;1.57;;;21.30;99.90;;;;;;5003372;28;20529;-82
2022/09/14 15:12:55;;;;;;;1.40;1.30;;;21.20;99.90;;;;;;5017583;28;20226;-82
2022/09/14 15:15:23;;;;;;;1.30;1.20;;;21.10;99.90;;;;;;5007294;28;20187;-82
2022/09/14 15:17:50;;;;;;;1.50;1.20;;;22.00;99.90;;;;;;5013946;28;20207;-82
2022/09/14 15:20:18;;;;;;;1.60;1.27;;;21.30;99.90;;;;;;5010409;28;20449;-83
2022/09/14 15:22:44;;;;;;;1.80;1.17;;;20.90;99.90;;;;;;5008072;28;20450;-83
2022/09/14 15:25:11;;;;;;;2.13;1.77;;;21.10;99.90;;;;;;4990573;28;20208;-83
2022/09/14 15:27:36;;;;;;;1.30;1.20;;;21.20;99.90;;;;;;5002395;28;20484;-87
2022/09/14 15:30:03;;;;;;;1.60;1.50;;;21.20;99.90;;;;;;5008191;28;20178;-85
2022/09/14 15:32:29;;;;;;;1.63;1.30;;;20.90;99.90;;;;;;4998439;28;20320;-85
2022/09/14 15:34:55;;;;;;;4.23;1.87;;;21.20;99.90;;;;;;5004451;28;20442;-85
2022/09/14 15:37:20;;;;;;;1.30;1.20;;;21.40;99.90;;;;;;4990597;28;20476;-85
2022/09/14 15:39:49;;;;;;;1.20;1.10;;;21.10;99.90;;;;;;5006040;28;20191;-85
2022/09/14 15:42:15;;;;;;;1.17;0.95;;;21.40;99.90;;;;;;4997083;28;20276;-86
2022/09/14 15:44:41;;;;;;;2.65;1.42;;;21.30;99.90;;;;;;4998030;28;20221;-84
2022/09/14 15:47:07;;;;;;;1.70;1.20;;;21.80;99.90;;;;;;5008381;28;20198;-84
2022/09/14 15:49:33;;;;;;;1.50;1.40;;;21.40;99.90;;;;;;4994904;28;20282;-87
2022/09/14 15:51:58;;;;;;;2.00;1.80;;;21.60;99.90;;;;;;5006494;28;20520;-84
2022/09/14 15:54:29;;;;;;;3.60;1.33;;;21.50;99.90;;;;;;4991737;28;20187;-85
2022/09/14 15:56:58;;;;;;;1.53;1.43;;;21.90;99.90;;;;;;4994394;28;20206;-85
2022/09/14 15:59:23;;;;;;;1.67;1.30;;;21.50;99.90;;;;;;4996449;28;20433;-84
2022/09/14 16:01:49;;;;;;;1.70;1.60;;;21.20;99.90;;;;;;4995192;28;21031;-85
2022/09/14 16:04:15;;;;;;;3.93;1.80;;;21.40;99.90;;;;;;4989111;28;20301;-85
2022/09/14 16:06:41;;;;;;;3.00;1.40;;;21.40;99.90;;;;;;5001921;28;20233;-85
2022/09/14 16:09:08;;;;;;;1.43;1.17;;;21.20;99.90;;;;;;4990283;28;20461;-84
2022/09/14 16:11:35;;;;;;;2.92;1.42;;;21.60;99.90;;;;;;5011741;28;20258;-85
2022/09/14 16:14:02;;;;;;;1.70;1.10;;;21.20;99.90;;;;;;5006734;28;20244;-85
2022/09/14 16:16:29;;;;;;;1.30;1.20;;;21.70;99.90;;;;;;5005100;28;20195;-85
2022/09/14 16:18:56;;;;;;;1.90;1.80;;;21.40;99.90;;;;;;5009347;28;20190;-85
2022/09/14 16:21:26;;;;;;;2.10;1.90;;;21.30;99.90;;;;;;5017165;28;20565;-85
2022/09/14 16:23:54;;;;;;;2.47;1.75;;;20.90;99.90;;;;;;5005106;28;20872;-84
2022/09/14 16:26:26;;;;;;;1.20;1.10;;;21.20;99.90;;;;;;5006900;28;20615;-87
2022/09/14 16:28:52;;;;;;;1.60;1.40;;;20.90;99.90;;;;;;4990956;28;20201;-85
2022/09/14 16:31:38;;;;;;;1.65;1.48;;;21.10;99.90;;;;;;5001983;28;20525;-87
2022/09/14 16:34:12;;;;;;;1.45;1.30;;;21.30;99.90;;;;;;4980988;28;20338;-81
2022/09/14 16:36:39;;;;;;;1.40;1.10;;;20.90;99.90;;;;;;5003913;28;20186;-82
2022/09/14 16:39:10;;;;;;;1.30;1.20;;;21.10;99.90;;;;;;5005577;28;20189;-81
2022/09/14 16:41:37;;;;;;;1.60;1.50;;;20.90;99.90;;;;;;4987246;28;20187;-83
2022/09/14 16:44:04;;;;;;;1.77;1.37;;;21.00;99.90;;;;;;4986805;28;20445;-83
2022/09/14 16:46:31;;;;;;;2.00;1.37;;;20.90;99.90;;;;;;5012810;28;20446;-82
2022/09/14 16:48:59;;;;;;;1.90;1.30;;;22.60;99.90;;;;;;5004452;28;20604;-83
2022/09/14 16:51:28;;;;;;;1.45;1.13;;;20.80;99.90;;;;;;5009194;28;20480;-82
2022/09/14 16:53:54;;;;;;;2.40;1.47;;;21.20;99.90;;;;;;5007247;28;20179;-82
2022/09/14 16:56:25;;;;;;;1.57;1.30;;;21.30;99.90;;;;;;5002638;28;20454;-82
2022/09/14 16:58:53;;;;;;;2.85;1.73;;;21.20;99.90;;;;;;4992886;28;20515;-82
2022/09/14 17:01:30;;;;;;;1.52;1.42;;;21.40;99.90;;;;;;4996687;28;20186;-82
2022/09/14 17:04:02;;;;;;;2.03;1.42;;;21.10;99.90;;;;;;5006948;28;20241;-82
2022/09/14 17:06:30;;;;;;;3.28;1.58;;;21.00;99.90;;;;;;5000652;28;20194;-82
2022/09/14 17:09:03;;;;;;;3.20;1.30;;;21.30;99.90;;;;;;5004765;28;20305;-82
2022/09/14 17:11:32;;;;;;;1.80;1.50;;;21.00;99.90;;;;;;5003684;28;20179;-82
2022/09/14 17:13:58;;;;;;;2.10;1.65;;;21.40;99.90;;;;;;5008478;28;20775;-81
2022/09/14 17:16:26;;;;;;;2.40;1.77;;;20.90;99.90;;;;;;4989651;28;20228;-82
2022/09/14 17:18:53;;;;;;;3.97;3.10;;;22.50;99.90;;;;;;4994582;28;20201;-81
2022/09/14 17:21:23;;;;;;;2.60;1.80;;;21.10;99.90;;;;;;5001862;28;20178;-82
2022/09/14 17:23:48;;;;;;;3.85;2.10;;;21.20;99.90;;;;;;5003540;28;20587;-87
2022/09/14 17:26:19;;;;;;;2.87;2.33;;;21.30;99.90;;;;;;5005554;28;20619;-82
2022/09/14 17:28:48;;;;;;;2.85;2.08;;;21.30;99.90;;;;;;4996707;28;20693;-83
2022/09/14 17:31:16;;;;;;;2.10;1.90;;;20.80;99.90;;;;;;4993627;28;20193;-82
2022/09/14 17:33:42;;;;;;;1.83;1.73;;;20.80;99.90;;;;;;5002457;28;20192;-82
2022/09/14 17:36:08;;;;;;;2.93;1.60;;;21.10;99.90;;;;;;5004747;28;20183;-82
2022/09/14 17:38:37;;;;;;;2.03;1.47;;;22.00;99.90;;;;;;5004516;28;20760;-82
2022/09/14 17:41:14;;;;;;;2.17;1.98;;;20.90;99.90;;;;;;5006527;28;20440;-82
2022/09/14 17:43:40;;;;;;;4.53;2.03;;;20.70;99.90;;;;;;4999975;28;20187;-82
2022/09/14 17:46:08;;;;;;;2.65;2.40;;;20.20;99.90;;;;;;5007537;28;20469;-82
2022/09/14 17:48:36;;;;;;;2.67;2.47;;;20.90;99.90;;;;;;5003170;28;20206;-82
2022/09/14 17:51:06;;;;;;;3.55;2.30;;;21.00;99.90;;;;;;5006285;28;20442;-82
2022/09/14 17:53:39;;;;;;;3.47;2.10;;;20.70;99.90;;;;;;5003751;28;20207;-82
2022/09/14 17:56:07;;;;;;;5.70;2.20;;;21.00;99.90;;;;;;5007895;28;20260;-82
2022/09/14 17:58:34;;;;;;;3.05;2.38;;;21.90;99.90;;;;;;4994969;28;20208;-82
2022/09/14 18:01:22;;;;;;;3.58;2.40;;;20.90;99.90;;;;;;5001085;28;20186;-82
2022/09/14 18:03:53;;;;;;;2.33;1.80;;;20.90;99.90;;;;;;4996400;28;20246;-82
2022/09/14 18:06:20;;;;;;;2.10;1.90;;;20.40;99.90;;;;;;4999831;28;20194;-81
2022/09/14 18:08:46;;;;;;;2.15;1.95;;;20.80;99.90;;;;;;4997475;28;20644;-81
2022/09/14 18:11:16;;;;;;;2.20;1.73;;;20.70;99.90;;;;;;4987999;28;20197;-81
2022/09/14 18:13:47;;;;;;;3.97;2.22;;;20.60;99.90;;;;;;5005945;28;20635;-82
2022/09/14 18:16:14;;;;;;;3.97;3.35;;;20.40;99.90;;;;;;4994022;28;20274;-81
2022/09/14 18:18:40;;;;;;;3.67;2.78;;;20.30;99.90;;;;;;4994873;28;20211;-82
2022/09/14 18:21:06;;;;;;;4.80;2.40;;;22.00;99.90;;;;;;5003203;28;20198;-82
2022/09/14 18:23:33;;;;;;;8.30;4.43;;;20.70;99.90;;;;;;4999119;28;20281;-81
2022/09/14 18:26:01;;;;;;;2.30;2.10;;;20.70;99.90;;;;;;5005389;28;20614;-80
2022/09/14 18:28:26;;;;;;;7.90;5.55;;;20.70;99.90;;;;;;4993128;28;20238;-81
2022/09/14 18:31:04;;;;;;;5.20;2.50;;;20.40;99.90;;;;;;5000942;28;20272;-81
2022/09/14 18:33:29;;;;;;;2.63;2.42;;;20.10;99.90;;;;;;4998247;28;20198;-85
2022/09/14 18:35:55;;;;;;;4.30;3.03;;;20.60;99.90;;;;;;5000900;28;20187;-85
2022/09/14 18:38:21;;;;;;;3.10;2.60;;;20.30;99.90;;;;;;4998938;28;20440;-84
2022/09/14 18:40:47;;;;;;;3.90;2.72;;;20.20;99.90;;;;;;4989383;28;20270;-86
2022/09/14 18:43:15;;;;;;;3.45;3.03;;;21.10;99.90;;;;;;4996195;28;20242;-84
2022/09/14 18:45:42;;;;;;;3.70;2.50;;;20.80;99.90;;;;;;4996858;28;20230;-86
2022/09/14 18:48:07;;;;;;;3.10;2.70;;;20.60;99.90;;;;;;5000325;28;21024;-92
2022/09/14 18:50:33;;;;;;;2.63;2.43;;;20.60;99.90;;;;;;5010328;28;20179;-85
2022/09/14 18:52:59;;;;;;;5.90;3.63;;;20.50;99.90;;;;;;5011611;28;20213;-87
2022/09/14 18:55:24;;;;;;;3.30;2.90;;;20.60;99.90;;;;;;4992386;28;20477;-88
2022/09/14 18:57:50;;;;;;;3.40;2.80;;;20.70;99.90;;;;;;5011366;28;20229;-88
2022/09/14 19:00:17;;;;;;;2.43;2.20;;;20.40;99.90;;;;;;4994012;28;20183;-88
2022/09/14 19:02:43;;;;;;;3.17;2.65;;;20.60;99.90;;;;;;4993645;28;21293;-85
2022/09/14 19:05:09;;;;;;;2.83;2.53;;;20.40;99.90;;;;;;4998147;28;20632;-87
2022/09/14 19:07:36;;;;;;;4.20;2.60;;;20.70;99.90;;;;;;4989762;28;20234;-88
2022/09/14 19:10:03;;;;;;;3.65;2.55;;;20.60;99.90;;;;;;4996123;28;20512;-87
2022/09/14 19:12:29;;;;;;;3.80;2.80;;;20.10;99.90;;;;;;4989663;28;20196;-81
2022/09/14 19:14:54;;;;;;;3.60;2.77;;;20.10;99.90;;;;;;5003816;28;20193;-81
2022/09/14 19:17:20;;;;;;;3.60;3.23;;;20.40;99.90;;;;;;5006052;28;20216;-81
2022/09/14 19:19:45;;;;;;;3.67;3.07;;;20.40;99.90;;;;;;5004212;28;20186;-82
2022/09/14 19:22:11;;;;;;;3.67;2.60;;;20.00;99.90;;;;;;5000739;28;20599;-81
2022/09/14 19:24:36;;;;;;;4.00;2.63;;;20.20;99.90;;;;;;5002061;28;20257;-82
2022/09/14 19:27:02;;;;;;;2.90;2.60;;;19.80;99.90;;;;;;5004815;28;20666;-81
2022/09/14 19:29:28;;;;;;;2.47;2.27;;;20.10;99.90;;;;;;5002423;28;20187;-81
2022/09/14 19:31:54;;;;;;;4.37;2.70;;;20.40;99.90;;;;;;5010054;28;20186;-82
2022/09/14 19:34:21;;;;;;;4.05;2.80;;;21.20;99.90;;;;;;4984084;28;20198;-82
2022/09/14 19:36:48;;;;;;;5.15;2.75;;;20.20;99.90;;;;;;5002922;28;20215;-81
2022/09/14 19:39:14;;;;;;;2.13;2.03;;;20.30;99.90;;;;;;4989250;28;20188;-81
2022/09/14 19:41:40;;;;;;;2.60;2.30;;;20.60;99.90;;;;;;5003447;28;20236;-81
2022/09/14 19:44:07;;;;;;;3.30;2.50;;;20.30;99.90;;;;;;5009788;28;20796;-81
2022/09/14 19:46:35;;;;;;;3.95;2.65;;;19.80;99.90;;;;;;5001934;28;20234;-81
2022/09/14 19:49:01;;;;;;;3.55;2.45;;;19.80;99.90;;;;;;4991921;28;20276;-81
2022/09/14 19:51:29;;;;;;;3.13;2.20;;;19.90;99.90;;;;;;4991977;28;20176;-82
2022/09/14 19:53:56;;;;;;;2.70;2.50;;;19.80;99.90;;;;;;5001642;28;20449;-81
2022/09/14 19:56:27;;;;;;;3.75;2.45;;;20.30;99.90;;;;;;5008049;28;20183;-82
2022/09/14 19:58:56;;;;;;;2.97;2.45;;;20.20;99.90;;;;;;4989358;28;20179;-83
2022/09/14 20:01:24;;;;;;;2.72;2.47;;;20.00;99.90;;;;;;5011542;28;20249;-82
2022/09/14 20:03:49;;;;;;;6.20;2.70;;;20.10;99.90;;;;;;5003659;28;20200;-82
2022/09/14 20:06:19;;;;;;;2.60;2.40;;;20.00;99.90;;;;;;5003141;28;20220;-81
2022/09/14 20:08:46;;;;;;;2.92;2.38;;;20.20;99.90;;;;;;5004963;28;20281;-81
2022/09/14 20:11:13;;;;;;;2.70;2.50;;;20.30;99.90;;;;;;5011752;28;20238;-82
2022/09/14 20:13:39;;;;;;;3.10;2.78;;;20.20;99.90;;;;;;5007411;28;20187;-82
2022/09/14 20:16:20;;;;;;;6.13;2.90;;;20.20;99.90;;;;;;5009527;28;20317;-82
2022/09/14 20:18:47;;;;;;;3.35;3.08;;;19.80;99.90;;;;;;4992409;28;20206;-83
2022/09/14 20:21:16;;;;;;;3.00;2.70;;;20.20;99.90;;;;;;5010815;28;20183;-82
2022/09/14 20:23:42;;;;;;;5.53;3.22;;;19.80;99.90;;;;;;5006015;28;20196;-82
2022/09/14 20:26:11;;;;;;;4.20;3.40;;;20.00;99.90;;;;;;5000156;28;20768;-82
2022/09/14 20:28:37;;;;;;;4.13;3.70;;;19.90;99.90;;;;;;4993593;28;20293;-82
2022/09/14 20:31:05;;;;;;;2.58;2.38;;;20.50;99.90;;;;;;5007281;28;20238;-82
2022/09/14 20:33:31;;;;;;;2.97;2.72;;;19.60;99.90;;;;;;5006746;28;20184;-82
2022/09/14 20:36:02;;;;;;;3.10;2.80;;;21.40;99.90;;;;;;5006105;28;20186;-82
2022/09/14 20:38:28;;;;;;;6.43;2.60;;;19.60;99.90;;;;;;4997685;28;20206;-82
2022/09/14 20:40:56;;;;;;;3.80;2.90;;;19.90;99.90;;;;;;4993900;28;20179;-82
2022/09/14 20:43:22;;;;;;;4.13;2.70;;;20.00;99.90;;;;;;4988516;28;20199;-81
2022/09/14 20:45:47;;;;;;;3.47;2.70;;;19.60;99.90;;;;;;5007551;28;20207;-83
2022/09/14 20:48:13;;;;;;;3.20;2.90;;;19.80;99.90;;;;;;4991479;28;20214;-82
2022/09/14 20:50:38;;;;;;;3.00;2.80;;;20.20;99.90;;;;;;5008626;28;20182;-82
2022/09/14 20:53:04;;;;;;;3.30;3.00;;;20.00;99.90;;;;;;5008635;28;20253;-82
2022/09/14 20:55:31;;;;;;;4.20;2.50;;;19.70;99.90;;;;;;5006010;28;20188;-82
2022/09/14 20:57:57;;;;;;;2.78;2.05;;;19.90;99.90;;;;;;5009406;28;20199;-81
2022/09/14 21:00:22;;;;;;;4.27;2.20;;;20.10;99.90;;;;;;5008442;28;20182;-82
2022/09/14 21:02:51;;;;;;;2.70;2.30;;;20.00;99.90;;;;;;5004931;28;20222;-83
2022/09/14 21:05:16;;;;;;;3.33;2.40;;;20.00;99.90;;;;;;5004249;28;20972;-83
2022/09/14 21:07:49;;;;;;;6.53;3.17;;;20.00;99.90;;;;;;5009659;28;20286;-82
2022/09/14 21:10:15;;;;;;;4.07;2.78;;;19.90;99.90;;;;;;5006922;28;20183;-82
2022/09/14 21:12:40;;;;;;;5.90;2.50;;;19.70;99.90;;;;;;5000507;28;20730;-82
2022/09/14 21:15:06;;;;;;;4.33;3.30;;;19.90;99.90;;;;;;5002222;28;20192;-82
2022/09/14 21:17:33;;;;;;;3.10;2.73;;;19.70;99.90;;;;;;5008321;28;20234;-82
2022/09/14 21:19:58;;;;;;;3.50;2.58;;;20.00;99.90;;;;;;5006891;28;20445;-82
2022/09/14 21:22:24;;;;;;;2.40;2.13;;;19.80;99.90;;;;;;5000887;28;20180;-82
2022/09/14 21:24:49;;;;;;;3.33;2.10;;;20.00;99.90;;;;;;4991718;28;20242;-82
2022/09/14 21:27:15;;;;;;;2.77;2.30;;;20.20;99.90;;;;;;5010241;28;20218;-82
2022/09/14 21:29:40;;;;;;;2.93;2.00;;;19.80;99.90;;;;;;5011719;28;20659;-82
2022/09/14 21:32:06;;;;;;;2.90;2.10;;;20.00;99.90;;;;;;5003062;28;20749;-81
2022/09/14 21:34:32;;;;;;;2.37;2.17;;;19.90;99.90;;;;;;5008831;28;20198;-82
2022/09/14 21:36:57;;;;;;;2.63;2.43;;;19.80;99.90;;;;;;5009088;28;20198;-82
2022/09/14 21:39:25;;;;;;;3.53;2.53;;;20.30;99.90;;;;;;5008491;28;20205;-81
2022/09/14 21:41:53;;;;;;;2.25;2.05;;;19.50;99.90;;;;;;5003059;28;20211;-82
2022/09/14 21:44:19;;;;;;;2.60;2.17;;;20.50;99.90;;;;;;5009627;28;20179;-82
2022/09/14 21:46:45;;;;;;;3.17;2.50;;;20.40;99.90;;;;;;5005129;28;20192;-82
2022/09/14 21:49:13;;;;;;;2.73;2.33;;;20.40;99.90;;;;;;5008131;28;20171;-81
2022/09/14 21:51:39;;;;;;;2.13;2.03;;;19.10;99.90;;;;;;4988604;28;20562;-82
2022/09/14 21:54:08;;;;;;;2.93;2.73;;;20.30;99.90;;;;;;5007967;28;20178;-82
2022/09/14 21:56:36;;;;;;;2.80;2.60;;;19.70;99.90;;;;;;5003401;28;20678;-82
2022/09/14 21:59:08;;;;;;;2.83;2.35;;;20.70;99.90;;;;;;5000940;28;20183;-81
2022/09/14 22:01:33;;;;;;;5.05;2.25;;;19.90;99.90;;;;;;4999888;28;20183;-82
2022/09/14 22:03:59;;;;;;;7.03;2.63;;;20.40;99.90;;;;;;4994987;28;20202;-82
2022/09/14 22:06:27;;;;;;;2.60;2.40;;;19.90;99.90;;;;;;5003865;28;20207;-82
2022/09/14 22:08:54;;;;;;;3.88;2.25;;;20.20;99.90;;;;;;5010319;28;20207;-82
2022/09/14 22:11:28;;;;;;;3.17;2.08;;;20.10;99.90;;;;;;4999456;28;20216;-81
2022/09/14 22:14:14;;;;;;;2.45;2.25;;;19.90;99.90;;;;;;5001975;28;20184;-81
2022/09/14 22:16:40;;;;;;;3.45;2.90;;;20.00;99.90;;;;;;5008062;28;20202;-82
2022/09/14 22:19:12;;;;;;;3.30;2.90;;;19.70;99.90;;;;;;5009834;28;20682;-82
2022/09/14 22:21:38;;;;;;;2.75;2.45;;;20.00;99.90;;;;;;5010364;28;20187;-82
2022/09/14 22:24:09;;;;;;;3.30;3.00;;;20.10;99.90;;;;;;5002665;28;20199;-82
2022/09/14 22:26:38;;;;;;;3.95;2.78;;;20.30;99.90;;;;;;5010066;28;21049;-82
2022/09/14 22:29:04;;;;;;;2.67;1.90;;;20.00;99.90;;;;;;5012164;28;20624;-82
2022/09/14 22:31:31;;;;;;;2.38;2.17;;;19.90;99.90;;;;;;5011205;28;20274;-81
2022/09/14 22:33:58;;;;;;;3.13;2.35;;;20.00;99.90;;;;;;5010863;28;20179;-82
2022/09/14 22:36:24;;;;;;;2.38;2.17;;;19.90;99.90;;;;;;5012751;28;20190;-81
2022/09/14 22:38:53;;;;;;;2.00;1.90;;;20.10;99.90;;;;;;5011734;28;20231;-81
2022/09/14 22:41:21;;;;;;;3.33;2.78;;;20.10;99.90;;;;;;5012266;28;20190;-82
2022/09/14 22:43:47;;;;;;;3.63;2.30;;;20.20;99.90;;;;;;5011824;28;20190;-83
2022/09/14 22:46:14;;;;;;;3.40;2.55;;;20.10;99.90;;;;;;5009372;28;20222;-82
2022/09/14 22:48:39;;;;;;;3.15;2.30;;;20.10;99.90;;;;;;5009437;28;20234;-82
2022/09/14 22:51:07;;;;;;;2.83;2.60;;;19.70;99.90;;;;;;5013629;28;20709;-82
2022/09/14 22:53:33;;;;;;;2.53;2.33;;;19.80;99.90;;;;;;5011292;28;20186;-82
2022/09/14 22:56:31;;;;;;;3.47;2.60;;;19.80;99.90;;;;;;5011332;28;20195;-82
2022/09/14 22:58:57;;;;;;;2.88;2.60;;;19.80;99.90;;;;;;5008181;28;20256;-82
2022/09/14 23:01:28;;;;;;;5.43;2.55;;;20.20;99.90;;;;;;5007412;28;20190;-81
2022/09/14 23:03:59;;;;;;;3.17;2.78;;;19.90;99.90;;;;;;5005464;28;20262;-82
2022/09/14 23:06:27;;;;;;;3.58;2.47;;;20.20;99.90;;;;;;5003513;28;20596;-82
2022/09/14 23:08:52;;;;;;;2.50;2.30;;;20.40;99.90;;;;;;5011441;28;20230;-82
2022/09/14 23:11:18;;;;;;;2.57;2.37;;;20.30;99.90;;;;;;5012240;28;20179;-82
2022/09/14 23:13:43;;;;;;;2.47;2.30;;;19.70;99.90;;;;;;5012393;28;20187;-82
2022/09/14 23:16:14;;;;;;;3.07;2.77;;;20.40;99.90;;;;;;5005729;28;20183;-82
2022/09/14 23:18:41;;;;;;;2.58;2.38;;;20.40;99.90;;;;;;5009308;28;20206;-82
2022/09/14 23:21:07;;;;;;;4.05;2.38;;;20.10;99.90;;;;;;5011032;28;20561;-82
2022/09/14 23:23:33;;;;;;;3.78;2.65;;;20.10;99.90;;;;;;5012689;28;20224;-82
2022/09/14 23:26:07;;;;;;;3.03;2.50;;;20.40;99.90;;;;;;5007172;28;20224;-82
2022/09/14 23:28:34;;;;;;;5.05;2.95;;;20.40;99.90;;;;;;5012768;28;20668;-82
2022/09/14 23:31:00;;;;;;;2.90;2.70;;;20.40;99.90;;;;;;5011794;28;20175;-81
2022/09/14 23:33:27;;;;;;;3.00;2.63;;;20.50;99.90;;;;;;5011386;28;20556;-82
2022/09/14 23:35:52;;;;;;;3.25;2.67;;;20.40;99.90;;;;;;5010626;28;20194;-81
2022/09/14 23:38:18;;;;;;;2.40;2.20;;;20.50;99.90;;;;;;5009197;28;20199;-82
2022/09/14 23:40:44;;;;;;;2.67;2.47;;;21.10;99.90;;;;;;5004188;28;20492;-82
2022/09/14 23:43:10;;;;;;;2.70;2.50;;;20.10;99.90;;;;;;5010881;28;20210;-82
2022/09/14 23:45:35;;;;;;;2.60;2.40;;;20.50;99.90;;;;;;5010636;28;20738;-82
2022/09/14 23:48:01;;;;;;;3.33;2.53;;;20.20;99.90;;;;;;5010669;28;20450;-82
2022/09/14 23:50:27;;;;;;;3.33;2.47;;;20.00;99.90;;;;;;5012028;28;20610;-82
2022/09/14 23:52:56;;;;;;;2.97;2.60;;;20.30;99.90;;;;;;5012089;28;20207;-81
2022/09/14 23:55:23;;;;;;;3.17;2.88;;;20.20;99.90;;;;;;5009866;28;20500;-82
2022/09/14 23:57:49;;;;;;;3.72;2.50;;;20.20;99.90;;;;;;5010585;28;20199;-82
